Time;durP1;ratioP1;P1;durP2;ratioP2;P2;SDS_P1;SDS_P2;PMS_P1;PMS_P2;Temp;Humidity;BMP_temperature;BMP_pressure;BME280_temperature;BME280_humidity;BME280_pressure;Samples;Min_cycle;Max_cycle;Signal;HPM_P1;HPM_P2
2022/03/02 00:00:29;;;;;;;;;;;6.00;78.40;;;;;;5031312;28;19931;-73
2022/03/02 00:02:55;;;;;;;;;;;6.00;79.00;;;;;;5037618;28;19931;-73
2022/03/02 00:05:24;;;;;;;;;;;5.90;78.80;;;;;;5036540;28;19930;-73
2022/03/02 00:07:51;;;;;;;;;;;6.00;78.60;;;;;;5034640;28;19925;-73
2022/03/02 00:10:17;;;;;;;;;;;6.00;79.10;;;;;;5029647;28;19925;-73
2022/03/02 00:12:44;;;;;;;;;;;6.00;79.10;;;;;;5032767;28;20392;-73
2022/03/02 00:15:11;;;;;;;;;;;5.90;80.20;;;;;;5031365;28;20392;-73
2022/03/02 00:17:39;;;;;;;;;;;5.90;80.70;;;;;;5031395;28;20004;-73
2022/03/02 00:20:06;;;;;;;;;;;5.90;81.60;;;;;;5030738;28;20296;-73
2022/03/02 00:22:33;;;;;;;;;;;5.80;82.60;;;;;;5032372;28;19929;-73
2022/03/02 00:25:00;;;;;;;;;;;5.70;84.00;;;;;;5032162;28;20388;-73
2022/03/02 00:27:27;;;;;;;;;;;5.60;85.00;;;;;;5031685;28;20020;-73
2022/03/02 00:29:54;;;;;;;;;;;5.60;86.70;;;;;;5030900;28;19980;-73
2022/03/02 00:32:20;;;;;;;;;;;5.60;86.90;;;;;;5030954;28;20380;-73
2022/03/02 00:34:48;;;;;;;;;;;5.60;87.00;;;;;;5032263;28;20407;-74
2022/03/02 00:37:15;;;;;;;;;;;5.60;86.30;;;;;;5030747;28;19925;-73
2022/03/02 00:39:42;;;;;;;;;;;5.60;87.20;;;;;;5032742;28;19929;-73
2022/03/02 00:42:09;;;;;;;;;;;5.60;87.70;;;;;;5031786;28;19926;-73
2022/03/02 00:44:36;;;;;;;;;;;5.60;87.10;;;;;;5031426;28;19925;-73
2022/03/02 00:47:04;;;;;;;;;;;5.60;87.00;;;;;;5030991;28;19931;-74
2022/03/02 00:49:32;;;;;;;;;;;5.60;86.80;;;;;;5032940;28;19948;-75
2022/03/02 00:52:03;;;;;;;;;;;5.60;86.90;;;;;;5030894;28;20008;-73
2022/03/02 00:54:30;;;;;;;;;;;5.60;86.70;;;;;;5032342;28;20411;-74
2022/03/02 00:56:57;;;;;;;;;;;5.60;87.00;;;;;;5034538;28;20032;-74
2022/03/02 00:59:23;;;;;;;;;;;5.60;87.30;;;;;;5037045;28;19932;-73
2022/03/02 01:01:50;;;;;;;;;;;5.60;88.50;;;;;;5034751;28;19929;-74
2022/03/02 01:04:17;;;;;;;;;;;5.50;89.40;;;;;;5036691;28;20035;-73
2022/03/02 01:06:44;;;;;;;;;;;5.40;90.10;;;;;;5034945;28;19964;-73
2022/03/02 01:09:12;;;;;;;;;;;5.30;90.40;;;;;;5036488;28;19925;-73
2022/03/02 01:11:39;;;;;;;;;;;5.30;90.70;;;;;;5033611;28;19931;-73
2022/03/02 01:14:05;;;;;;;;;;;5.30;91.30;;;;;;5035949;28;19971;-73
2022/03/02 01:16:33;;;;;;;;;;;5.30;91.90;;;;;;5034174;28;19931;-73
2022/03/02 01:19:00;;;;;;;;;;;5.20;92.20;;;;;;5036358;28;20396;-73
2022/03/02 01:21:27;;;;;;;;;;;5.20;92.40;;;;;;5033513;28;19925;-73
2022/03/02 01:23:56;;;;;;;;;;;5.30;92.60;;;;;;5036137;28;19959;-75
2022/03/02 01:26:25;;;;;;;;;;;5.30;92.50;;;;;;5034714;28;19925;-73
2022/03/02 01:28:53;;;;;;;;;;;5.30;92.50;;;;;;5035862;28;20392;-73
2022/03/02 01:31:21;;;;;;;;;;;5.30;92.70;;;;;;5033189;28;19929;-74
2022/03/02 01:33:48;;;;;;;;;;;5.20;93.10;;;;;;5036446;28;19925;-74
2022/03/02 01:36:15;;;;;;;;;;;5.10;93.80;;;;;;5034059;28;19925;-73
2022/03/02 01:38:41;;;;;;;;;;;5.00;94.40;;;;;;5037685;28;20447;-76
2022/03/02 01:41:09;;;;;;;;;;;5.00;95.20;;;;;;5039145;28;19948;-75
2022/03/02 01:43:37;;;;;;;;;;;4.90;96.00;;;;;;5038854;28;19932;-74
2022/03/02 01:46:04;;;;;;;;;;;4.90;96.90;;;;;;5037624;28;20004;-73
2022/03/02 01:48:30;;;;;;;;;;;4.90;97.90;;;;;;5038815;28;19929;-75
2022/03/02 01:50:57;;;;;;;;;;;4.80;98.50;;;;;;5034138;28;19948;-73
2022/03/02 01:53:24;;;;;;;;;;;4.90;98.30;;;;;;5033442;28;19961;-73
2022/03/02 01:55:50;;;;;;;;;;;4.90;97.90;;;;;;5033342;28;20019;-73
2022/03/02 01:58:17;;;;;;;;;;;5.00;97.50;;;;;;5033942;28;19925;-73
2022/03/02 02:00:45;;;;;;;;;;;5.10;97.30;;;;;;5033111;28;19932;-73
2022/03/02 02:03:11;;;;;;;;;;;5.10;97.30;;;;;;5035367;28;19947;-73
2022/03/02 02:05:38;;;;;;;;;;;5.10;97.20;;;;;;5033644;28;20346;-73
2022/03/02 02:08:05;;;;;;;;;;;5.10;97.00;;;;;;5034106;28;19932;-73
2022/03/02 02:10:32;;;;;;;;;;;5.10;97.10;;;;;;5033340;28;19925;-73
2022/03/02 02:12:58;;;;;;;;;;;5.10;97.00;;;;;;5034992;28;20015;-73
2022/03/02 02:15:25;;;;;;;;;;;5.10;97.20;;;;;;5032138;28;19948;-73
2022/03/02 02:17:53;;;;;;;;;;;5.00;96.80;;;;;;5034781;28;19935;-74
2022/03/02 02:20:20;;;;;;;;;;;5.10;97.00;;;;;;5033529;28;20145;-74
2022/03/02 02:22:48;;;;;;;;;;;5.10;97.10;;;;;;5034879;28;19925;-73
2022/03/02 02:25:15;;;;;;;;;;;5.00;97.10;;;;;;5033295;28;19932;-73
2022/03/02 02:27:44;;;;;;;;;;;5.00;97.20;;;;;;5034564;28;19925;-73
2022/03/02 02:30:11;;;;;;;;;;;5.00;97.10;;;;;;5032793;28;20332;-74
2022/03/02 02:32:38;;;;;;;;;;;5.10;97.00;;;;;;5034574;28;20426;-73
2022/03/02 02:35:06;;;;;;;;;;;5.10;97.00;;;;;;5034184;28;19925;-73
2022/03/02 02:37:34;;;;;;;;;;;5.00;96.80;;;;;;5032499;28;19984;-73
2022/03/02 02:40:03;;;;;;;;;;;5.10;96.70;;;;;;5034616;28;20023;-73
2022/03/02 02:42:30;;;;;;;;;;;5.10;96.50;;;;;;5033871;28;20315;-73
2022/03/02 02:44:57;;;;;;;;;;;5.10;96.60;;;;;;5033453;28;19925;-73
2022/03/02 02:47:23;;;;;;;;;;;5.10;96.50;;;;;;5032080;28;19925;-73
2022/03/02 02:49:50;;;;;;;;;;;5.10;96.50;;;;;;5031439;28;19929;-73
2022/03/02 02:52:17;;;;;;;;;;;5.10;96.40;;;;;;5032244;28;20273;-73
2022/03/02 02:54:43;;;;;;;;;;;5.10;96.40;;;;;;5034523;28;19925;-73
2022/03/02 02:57:14;;;;;;;;;;;5.10;96.70;;;;;;5024389;28;19929;-73
2022/03/02 02:59:41;;;;;;;;;;;5.10;96.70;;;;;;5034652;28;19929;-73
2022/03/02 03:02:07;;;;;;;;;;;5.00;96.60;;;;;;5034799;28;19925;-74
2022/03/02 03:04:34;;;;;;;;;;;5.00;96.60;;;;;;5035030;28;20023;-73
2022/03/02 03:07:01;;;;;;;;;;;5.00;96.60;;;;;;5034329;28;19935;-73
2022/03/02 03:09:27;;;;;;;;;;;5.00;96.50;;;;;;5035022;28;20015;-73
2022/03/02 03:11:54;;;;;;;;;;;5.10;96.50;;;;;;5031961;28;20377;-73
2022/03/02 03:14:22;;;;;;;;;;;5.00;96.50;;;;;;5033795;28;19983;-73
2022/03/02 03:16:49;;;;;;;;;;;5.00;96.40;;;;;;5032304;28;20389;-73
2022/03/02 03:19:15;;;;;;;;;;;5.00;96.40;;;;;;5036875;28;19933;-73
2022/03/02 03:21:42;;;;;;;;;;;5.00;96.50;;;;;;5034661;28;19967;-72
2022/03/02 03:24:09;;;;;;;;;;;4.90;96.40;;;;;;5038788;28;20008;-73
2022/03/02 03:26:35;;;;;;;;;;;4.90;96.50;;;;;;5035055;28;20019;-73
2022/03/02 03:29:02;;;;;;;;;;;4.90;96.40;;;;;;5034566;28;19925;-73
2022/03/02 03:31:30;;;;;;;;;;;4.90;96.20;;;;;;5032399;28;19967;-73
2022/03/02 03:33:57;;;;;;;;;;;4.90;96.10;;;;;;5033869;28;20015;-73
2022/03/02 03:36:23;;;;;;;;;;;4.80;96.00;;;;;;5031690;28;19932;-73
2022/03/02 03:38:50;;;;;;;;;;;4.90;96.10;;;;;;5033873;28;19931;-74
2022/03/02 03:41:16;;;;;;;;;;;4.80;96.10;;;;;;5031373;28;19931;-73
2022/03/02 03:43:43;;;;;;;;;;;4.80;96.20;;;;;;5032409;28;19931;-73
2022/03/02 03:46:10;;;;;;;;;;;4.80;96.30;;;;;;5031580;28;19932;-74
2022/03/02 03:48:38;;;;;;;;;;;4.80;96.40;;;;;;5030793;28;19932;-73
2022/03/02 03:51:06;;;;;;;;;;;4.70;96.40;;;;;;5032034;28;19932;-73
2022/03/02 03:53:33;;;;;;;;;;;4.70;96.60;;;;;;5033263;28;19925;-74
2022/03/02 03:55:59;;;;;;;;;;;4.70;96.60;;;;;;5031289;28;19925;-73
2022/03/02 03:58:26;;;;;;;;;;;4.70;96.40;;;;;;5033373;28;19932;-73
2022/03/02 04:00:53;;;;;;;;;;;4.60;96.10;;;;;;5029017;28;19933;-74
2022/03/02 04:03:20;;;;;;;;;;;4.70;96.10;;;;;;5033061;28;20027;-73
2022/03/02 04:05:48;;;;;;;;;;;4.60;95.90;;;;;;5030834;28;20440;-73
2022/03/02 04:08:15;;;;;;;;;;;4.60;95.90;;;;;;5033073;28;19925;-73
2022/03/02 04:10:42;;;;;;;;;;;4.60;95.90;;;;;;5031402;28;19925;-73
2022/03/02 04:13:09;;;;;;;;;;;4.60;95.90;;;;;;5031633;28;20354;-73
2022/03/02 04:15:37;;;;;;;;;;;4.60;95.90;;;;;;5030650;28;19925;-73
2022/03/02 04:18:03;;;;;;;;;;;4.60;96.00;;;;;;5031554;28;19932;-73
2022/03/02 04:20:30;;;;;;;;;;;4.50;96.10;;;;;;5031399;28;19972;-73
2022/03/02 04:22:58;;;;;;;;;;;4.40;96.10;;;;;;5032643;28;19925;-73
2022/03/02 04:25:26;;;;;;;;;;;4.40;96.30;;;;;;5031023;28;19925;-73
2022/03/02 04:27:52;;;;;;;;;;;4.40;96.50;;;;;;5032658;28;19951;-73
2022/03/02 04:30:20;;;;;;;;;;;4.30;96.70;;;;;;5030913;28;20041;-74
2022/03/02 04:32:47;;;;;;;;;;;4.30;97.00;;;;;;5032936;28;19972;-73
2022/03/02 04:35:13;;;;;;;;;;;4.30;97.30;;;;;;5029709;28;19925;-73
2022/03/02 04:37:41;;;;;;;;;;;4.20;97.70;;;;;;5032657;28;19925;-73
2022/03/02 04:40:11;;;;;;;;;;;4.20;98.00;;;;;;5030915;28;20287;-73
2022/03/02 04:42:37;;;;;;;;;;;4.10;97.90;;;;;;5029156;28;20365;-73
2022/03/02 04:45:04;;;;;;;;;;;4.10;98.20;;;;;;5031535;28;19925;-73
2022/03/02 04:47:31;;;;;;;;;;;4.00;98.30;;;;;;5031854;28;19931;-73
2022/03/02 04:49:58;;;;;;;;;;;4.00;98.20;;;;;;5029836;28;19925;-73
2022/03/02 04:52:24;;;;;;;;;;;4.10;98.30;;;;;;5031064;28;20016;-73
2022/03/02 04:55:06;;;;;;;;;;;4.00;98.20;;;;;;5032400;28;19975;-73
2022/03/02 04:57:34;;;;;;;;;;;4.00;98.10;;;;;;5031552;28;20329;-73
2022/03/02 05:00:01;;;;;;;;;;;4.00;98.10;;;;;;5031568;28;20016;-73
2022/03/02 05:02:28;;;;;;;;;;;4.00;98.10;;;;;;5027431;28;20343;-73
2022/03/02 05:04:54;;;;;;;;;;;4.00;98.20;;;;;;5032201;28;20449;-73
2022/03/02 05:07:21;;;;;;;;;;;3.90;98.50;;;;;;5030416;28;20028;-73
2022/03/02 05:09:48;;;;;;;;;;;3.90;98.40;;;;;;5032329;28;20446;-73
2022/03/02 05:12:15;;;;;;;;;;;3.80;98.80;;;;;;5028476;28;19925;-73
2022/03/02 05:14:43;;;;;;;;;;;3.80;98.40;;;;;;5028564;28;19925;-73
2022/03/02 05:17:09;;;;;;;;;;;3.90;98.10;;;;;;5029298;28;19925;-74
2022/03/02 05:19:36;;;;;;;;;;;3.80;98.40;;;;;;5032259;28;20336;-73
2022/03/02 05:22:03;;;;;;;;;;;3.80;98.30;;;;;;5030431;28;20015;-73
2022/03/02 05:24:29;;;;;;;;;;;3.80;98.40;;;;;;5032291;28;19931;-73
2022/03/02 05:26:56;;;;;;;;;;;3.80;98.40;;;;;;5028110;28;19925;-74
2022/03/02 05:29:23;;;;;;;;;;;3.80;98.20;;;;;;5032138;28;20391;-74
2022/03/02 05:31:51;;;;;;;;;;;3.70;98.10;;;;;;5030297;28;20459;-74
2022/03/02 05:34:17;;;;;;;;;;;3.70;97.80;;;;;;5031035;28;20392;-73
2022/03/02 05:36:44;;;;;;;;;;;3.70;97.70;;;;;;5030119;28;19925;-73
2022/03/02 05:39:11;;;;;;;;;;;3.70;97.90;;;;;;5030978;28;20020;-73
2022/03/02 05:41:38;;;;;;;;;;;3.70;97.80;;;;;;5029616;28;20020;-73
2022/03/02 05:44:07;;;;;;;;;;;3.80;97.90;;;;;;5034578;28;19925;-72
2022/03/02 05:46:34;;;;;;;;;;;3.70;98.00;;;;;;5034050;28;19925;-73
2022/03/02 05:49:02;;;;;;;;;;;3.70;98.00;;;;;;5033575;28;20292;-73
2022/03/02 05:51:30;;;;;;;;;;;3.80;97.90;;;;;;5033799;28;19925;-72
2022/03/02 05:53:57;;;;;;;;;;;3.80;97.70;;;;;;5035634;28;19925;-73
2022/03/02 05:56:24;;;;;;;;;;;3.80;97.50;;;;;;5031391;28;19926;-73
2022/03/02 05:58:51;;;;;;;;;;;3.80;97.40;;;;;;5035477;28;20015;-73
2022/03/02 06:01:18;;;;;;;;;;;3.70;97.30;;;;;;5033431;28;19925;-73
2022/03/02 06:03:45;;;;;;;;;;;3.70;96.80;;;;;;5035011;28;19925;-73
2022/03/02 06:06:13;;;;;;;;;;;3.70;96.40;;;;;;5033058;28;19925;-73
2022/03/02 06:08:40;;;;;;;;;;;3.70;96.80;;;;;;5034967;28;19948;-73
2022/03/02 06:11:07;;;;;;;;;;;3.70;96.70;;;;;;5032956;28;20399;-73
2022/03/02 06:13:34;;;;;;;;;;;3.60;97.00;;;;;;5034767;28;19990;-73
2022/03/02 06:16:01;;;;;;;;;;;3.50;96.80;;;;;;5033822;28;19957;-73
2022/03/02 06:18:29;;;;;;;;;;;3.60;96.60;;;;;;5034206;28;20394;-73
2022/03/02 06:21:00;;;;;;;;;;;3.60;96.80;;;;;;5031595;28;19931;-74
2022/03/02 06:23:28;;;;;;;;;;;3.50;96.80;;;;;;5034822;28;20396;-73
2022/03/02 06:25:55;;;;;;;;;;;3.50;96.80;;;;;;5032163;28;19925;-74
2022/03/02 06:28:22;;;;;;;;;;;3.50;96.50;;;;;;5033482;28;19933;-73
2022/03/02 06:30:49;;;;;;;;;;;3.50;96.70;;;;;;5033270;28;19929;-73
2022/03/02 06:33:19;;;;;;;;;;;3.50;96.80;;;;;;5035362;28;20347;-73
2022/03/02 06:35:46;;;;;;;;;;;3.40;96.50;;;;;;5033356;28;19925;-73
2022/03/02 06:38:12;;;;;;;;;;;3.50;96.60;;;;;;5038375;28;19961;-74
2022/03/02 06:40:41;;;;;;;;;;;3.50;96.40;;;;;;5038368;28;19932;-73
2022/03/02 06:43:09;;;;;;;;;;;3.50;96.10;;;;;;5036779;28;19931;-72
2022/03/02 06:45:54;;;;;;;;;;;3.50;96.00;;;;;;5033212;28;19925;-73
2022/03/02 06:48:22;;;;;;;;;;;3.50;96.00;;;;;;5031134;28;20343;-73
2022/03/02 06:50:51;;;;;;;;;;;3.50;96.40;;;;;;5032334;28;19929;-73
2022/03/02 06:53:18;;;;;;;;;;;3.50;96.10;;;;;;5034606;28;20299;-73
2022/03/02 06:55:46;;;;;;;;;;;3.50;96.20;;;;;;5034257;28;19925;-72
2022/03/02 06:58:14;;;;;;;;;;;3.50;96.20;;;;;;5033752;28;19926;-73
2022/03/02 07:00:44;;;;;;;;;;;3.50;96.30;;;;;;5029992;28;19980;-73
2022/03/02 07:03:11;;;;;;;;;;;3.50;96.40;;;;;;5015557;28;20033;-73
2022/03/02 07:05:39;;;;;;;;;;;3.60;96.50;;;;;;5019278;28;20012;-72
2022/03/02 07:08:08;;;;;;;;;;;3.60;96.40;;;;;;5035881;28;19979;-73
2022/03/02 07:10:35;;;;;;;;;;;3.60;96.40;;;;;;5034078;28;20338;-72
2022/03/02 07:13:04;;;;;;;;;;;3.70;96.60;;;;;;5036673;28;19925;-73
2022/03/02 07:15:32;;;;;;;;;;;3.60;96.30;;;;;;5033905;28;20035;-72
2022/03/02 07:17:59;;;;;;;;;;;3.70;96.50;;;;;;5032880;28;19925;-73
2022/03/02 07:20:27;;;;;;;;;;;3.60;96.80;;;;;;5030761;28;20000;-72
2022/03/02 07:22:54;;;;;;;;;;;3.60;96.80;;;;;;5033723;28;19931;-72
2022/03/02 07:25:25;;;;;;;;;;;3.60;97.00;;;;;;5034044;28;20035;-72
2022/03/02 07:27:54;;;;;;;;;;;3.60;96.70;;;;;;5035572;28;19933;-72
2022/03/02 07:30:23;;;;;;;;;;;3.80;96.70;;;;;;5033356;28;20011;-72
2022/03/02 07:32:53;;;;;;;;;;;3.70;96.60;;;;;;5034475;28;19925;-72
2022/03/02 07:35:20;;;;;;;;;;;3.70;96.70;;;;;;5032687;28;20390;-72
2022/03/02 07:37:47;;;;;;;;;;;3.70;96.80;;;;;;5034622;28;20138;-72
2022/03/02 07:40:14;;;;;;;;;;;3.80;96.60;;;;;;5033983;28;20402;-71
2022/03/02 07:42:41;;;;;;;;;;;3.90;96.10;;;;;;5019142;28;19932;-72
2022/03/02 07:45:09;;;;;;;;;;;3.90;95.80;;;;;;5033056;28;20059;-71
2022/03/02 07:47:37;;;;;;;;;;;4.00;96.30;;;;;;5016629;28;19926;-72
2022/03/02 07:50:04;;;;;;;;;;;4.00;95.30;;;;;;5024900;28;20015;-72
2022/03/02 07:52:31;;;;;;;;;;;4.10;95.30;;;;;;5033036;28;19925;-71
2022/03/02 07:55:00;;;;;;;;;;;4.20;94.80;;;;;;5033410;28;19925;-71
2022/03/02 07:57:29;;;;;;;;;;;4.30;95.10;;;;;;5031701;28;19933;-72
2022/03/02 07:59:58;;;;;;;;;;;4.40;95.30;;;;;;5032462;28;19925;-71
2022/03/02 08:02:25;;;;;;;;;;;4.50;94.80;;;;;;5031873;28;19975;-71
2022/03/02 08:04:54;;;;;;;;;;;4.70;94.30;;;;;;5032980;28;19925;-72
2022/03/02 08:07:21;;;;;;;;;;;4.80;93.70;;;;;;5031120;28;19925;-72
2022/03/02 08:09:48;;;;;;;;;;;4.70;93.50;;;;;;5032733;28;20385;-72
2022/03/02 08:12:15;;;;;;;;;;;4.80;93.50;;;;;;5026497;28;19929;-72
2022/03/02 08:14:43;;;;;;;;;;;5.00;93.10;;;;;;5033402;28;20032;-72
2022/03/02 08:17:10;;;;;;;;;;;4.90;93.20;;;;;;5031353;28;19925;-72
2022/03/02 08:19:36;;;;;;;;;;;4.80;93.00;;;;;;5032870;28;19987;-72
2022/03/02 08:22:06;;;;;;;;;;;4.70;93.40;;;;;;5028698;28;19928;-72
2022/03/02 08:24:33;;;;;;;;;;;4.80;93.60;;;;;;5031485;28;20367;-73
2022/03/02 08:27:03;;;;;;;;;;;5.10;93.80;;;;;;5034935;28;21452;-79
2022/03/02 08:29:31;;;;;;;;;;;5.30;93.70;;;;;;5039252;28;19925;-72
2022/03/02 08:31:59;;;;;;;;;;;5.70;92.60;;;;;;5027789;28;19925;-73
2022/03/02 08:34:26;;;;;;;;;;;5.90;92.10;;;;;;5032854;28;19925;-73
2022/03/02 08:36:53;;;;;;;;;;;5.80;92.30;;;;;;5030460;28;19979;-73
2022/03/02 08:39:21;;;;;;;;;;;5.60;92.30;;;;;;5032674;28;19925;-73
2022/03/02 08:41:49;;;;;;;;;;;5.50;93.00;;;;;;5017579;28;19972;-73
2022/03/02 08:44:16;;;;;;;;;;;5.40;92.40;;;;;;5012910;28;20378;-73
2022/03/02 08:46:45;;;;;;;;;;;5.50;92.60;;;;;;5025598;28;19925;-73
2022/03/02 08:49:12;;;;;;;;;;;5.60;92.30;;;;;;5030856;28;19925;-73
2022/03/02 08:51:39;;;;;;;;;;;5.70;92.10;;;;;;5029104;28;20003;-72
2022/03/02 08:54:06;;;;;;;;;;;5.80;92.10;;;;;;5029951;28;19925;-73
2022/03/02 08:56:35;;;;;;;;;;;5.80;92.10;;;;;;5030482;28;20436;-73
2022/03/02 08:59:02;;;;;;;;;;;5.90;92.50;;;;;;5032633;28;19925;-72
2022/03/02 09:01:30;;;;;;;;;;;5.70;91.90;;;;;;5031625;28;19925;-72
2022/03/02 09:03:59;;;;;;;;;;;5.80;91.50;;;;;;5032759;28;20004;-73
2022/03/02 09:06:27;;;;;;;;;;;5.70;91.30;;;;;;5030304;28;19925;-72
2022/03/02 09:08:54;;;;;;;;;;;6.00;91.60;;;;;;5029332;28;20292;-73
2022/03/02 09:11:21;;;;;;;;;;;6.20;90.80;;;;;;5026196;28;19925;-72
2022/03/02 09:13:50;;;;;;;;;;;6.10;90.40;;;;;;5012623;28;19926;-72
2022/03/02 09:16:17;;;;;;;;;;;6.20;90.60;;;;;;5023646;28;19931;-72
2022/03/02 09:18:44;;;;;;;;;;;6.70;90.10;;;;;;5037957;28;20396;-73
2022/03/02 09:21:13;;;;;;;;;;;7.10;87.50;;;;;;5032261;28;19948;-73
2022/03/02 09:23:41;;;;;;;;;;;7.10;83.50;;;;;;5035186;28;19983;-72
2022/03/02 09:26:09;;;;;;;;;;;7.20;85.60;;;;;;5029027;28;19932;-73
2022/03/02 09:28:37;;;;;;;;;;;7.30;84.20;;;;;;5036032;28;19925;-72
2022/03/02 09:31:07;;;;;;;;;;;7.30;82.60;;;;;;5029442;28;20012;-73
2022/03/02 09:33:35;;;;;;;;;;;7.40;81.40;;;;;;5033766;28;20019;-72
2022/03/02 09:36:03;;;;;;;;;;;7.40;82.10;;;;;;5032814;28;19925;-72
2022/03/02 09:38:32;;;;;;;;;;;7.00;82.60;;;;;;5035762;28;19925;-72
2022/03/02 09:41:01;;;;;;;;;;;6.90;82.10;;;;;;5032392;28;19932;-73
2022/03/02 09:43:31;;;;;;;;;;;7.00;82.30;;;;;;5033943;28;19931;-72
2022/03/02 09:45:58;;;;;;;;;;;7.20;81.70;;;;;;5032901;28;20020;-72
2022/03/02 09:48:31;;;;;;;;;;;7.00;80.80;;;;;;5036005;28;20049;-73
2022/03/02 09:50:59;;;;;;;;;;;7.00;81.60;;;;;;5032896;28;19929;-72
2022/03/02 09:53:27;;;;;;;;;;;7.50;80.00;;;;;;5033923;28;20024;-72
2022/03/02 09:55:55;;;;;;;;;;;7.40;78.30;;;;;;5035233;28;19941;-73
2022/03/02 09:58:22;;;;;;;;;;;7.10;78.60;;;;;;5038345;28;19979;-72
2022/03/02 10:00:49;;;;;;;;;;;7.30;78.40;;;;;;5034038;28;20346;-72
2022/03/02 10:03:18;;;;;;;;;;;7.10;77.30;;;;;;5032130;28;20012;-72
2022/03/02 10:05:48;;;;;;;;;;;7.10;79.20;;;;;;5031314;28;19925;-73
2022/03/02 10:08:19;;;;;;;;;;;7.40;78.70;;;;;;5034918;28;19981;-72
2022/03/02 10:10:48;;;;;;;;;;;7.40;78.30;;;;;;5035761;28;19925;-72
2022/03/02 10:13:16;;;;;;;;;;;7.50;77.50;;;;;;5035542;28;19925;-73
2022/03/02 10:15:43;;;;;;;;;;;7.40;77.90;;;;;;5035243;28;20376;-72
2022/03/02 10:18:11;;;;;;;;;;;7.30;75.20;;;;;;5034753;28;19932;-72
2022/03/02 10:20:39;;;;;;;;;;;7.50;76.60;;;;;;5034944;28;20388;-73
2022/03/02 10:23:24;;;;;;;;;;;7.50;76.60;;;;;;5031388;28;20288;-71
2022/03/02 10:26:00;;;;;;;;;;;7.60;74.90;;;;;;5031078;28;19929;-71
2022/03/02 10:28:28;;;;;;;;;;;7.70;74.00;;;;;;5034348;28;19925;-72
2022/03/02 10:31:17;;;;;;;;;;;7.50;73.10;;;;;;5033033;28;19925;-72
2022/03/02 10:33:47;;;;;;;;;;;7.40;74.40;;;;;;5034619;28;20000;-72
2022/03/02 10:36:13;;;;;;;;;;;7.50;73.80;;;;;;5032530;28;19925;-72
2022/03/02 10:38:47;;;;;;;;;;;7.50;74.40;;;;;;5031602;28;20023;-73
2022/03/02 10:41:18;;;;;;;;;;;7.70;74.30;;;;;;5032772;28;20012;-73
2022/03/02 10:43:49;;;;;;;;;;;8.00;74.60;;;;;;5035138;28;20008;-72
2022/03/02 10:46:19;;;;;;;;;;;8.00;71.80;;;;;;5028831;28;20016;-73
2022/03/02 10:48:47;;;;;;;;;;;8.10;71.40;;;;;;5030526;28;20012;-73
2022/03/02 10:51:14;;;;;;;;;;;8.10;70.90;;;;;;5024267;28;20020;-73
2022/03/02 10:53:41;;;;;;;;;;;8.40;69.90;;;;;;5030873;28;19925;-73
2022/03/02 10:56:09;;;;;;;;;;;8.30;68.60;;;;;;5030976;28;19925;-72
2022/03/02 10:58:39;;;;;;;;;;;8.40;65.90;;;;;;5033286;28;20358;-73
2022/03/02 11:01:05;;;;;;;;;;;8.50;64.90;;;;;;5032699;28;19925;-73
2022/03/02 11:03:34;;;;;;;;;;;8.60;62.60;;;;;;5034490;28;20380;-72
2022/03/02 11:06:02;;;;;;;;;;;8.30;62.50;;;;;;5032477;28;19975;-72
2022/03/02 11:08:30;;;;;;;;;;;8.30;65.50;;;;;;5033779;28;20015;-72
2022/03/02 11:10:57;;;;;;;;;;;8.30;61.80;;;;;;5032536;28;20304;-73
2022/03/02 11:13:24;;;;;;;;;;;8.50;62.80;;;;;;5034020;28;20284;-72
2022/03/02 11:15:53;;;;;;;;;;;8.50;61.50;;;;;;5030459;28;19983;-73
2022/03/02 11:18:31;;;;;;;;;;;8.50;61.40;;;;;;5035707;28;19925;-74
2022/03/02 11:20:59;;;;;;;;;;;8.80;61.50;;;;;;5031758;28;20015;-73
2022/03/02 11:23:27;;;;;;;;;;;8.90;58.70;;;;;;5036010;28;20400;-73
2022/03/02 11:25:54;;;;;;;;;;;8.90;57.50;;;;;;5034237;28;20303;-73
2022/03/02 11:28:22;;;;;;;;;;;8.80;57.30;;;;;;5035206;28;20008;-72
2022/03/02 11:30:52;;;;;;;;;;;8.70;55.70;;;;;;5031692;28;20297;-73
2022/03/02 11:33:23;;;;;;;;;;;8.90;54.80;;;;;;5032453;28;20465;-73
2022/03/02 11:35:51;;;;;;;;;;;9.20;54.90;;;;;;5030858;28;19932;-73
2022/03/02 11:38:19;;;;;;;;;;;9.30;50.80;;;;;;5034486;28;20020;-73
2022/03/02 11:40:47;;;;;;;;;;;9.20;48.40;;;;;;5030175;28;19929;-73
2022/03/02 11:43:14;;;;;;;;;;;9.60;47.50;;;;;;5035064;28;19925;-75
2022/03/02 11:45:41;;;;;;;;;;;9.70;45.80;;;;;;5034645;28;20012;-73
2022/03/02 11:48:10;;;;;;;;;;;9.70;42.60;;;;;;5034613;28;19932;-74
2022/03/02 11:50:38;;;;;;;;;;;9.60;44.30;;;;;;5031973;28;20031;-73
2022/03/02 11:53:08;;;;;;;;;;;9.20;42.30;;;;;;5035566;28;20028;-76
2022/03/02 11:55:37;;;;;;;;;;;9.30;43.50;;;;;;5034996;28;19948;-72
2022/03/02 11:58:04;;;;;;;;;;;9.50;44.90;;;;;;5037714;28;19925;-73
2022/03/02 12:00:31;;;;;;;;;;;9.60;44.20;;;;;;5034413;28;19929;-73
2022/03/02 12:03:01;;;;;;;;;;;9.80;42.30;;;;;;5034848;28;19925;-72
2022/03/02 12:05:30;;;;;;;;;;;9.70;41.10;;;;;;5032692;28;19925;-72
2022/03/02 12:08:03;;;;;;;;;;;9.60;42.40;;;;;;5036436;28;19931;-73
2022/03/02 12:10:30;;;;;;;;;;;9.70;42.00;;;;;;5034063;28;19926;-73
2022/03/02 12:12:57;;;;;;;;;;;9.90;41.20;;;;;;5032625;28;20380;-73
2022/03/02 12:15:26;;;;;;;;;;;9.90;43.70;;;;;;5032277;28;20019;-73
2022/03/02 12:17:53;;;;;;;;;;;10.10;42.30;;;;;;5032736;28;20490;-72
2022/03/02 12:20:21;;;;;;;;;;;9.90;42.20;;;;;;5031720;28;19933;-72
2022/03/02 12:22:49;;;;;;;;;;;10.00;44.40;;;;;;5032622;28;20343;-73
2022/03/02 12:25:19;;;;;;;;;;;10.10;41.20;;;;;;5030699;28;19925;-72
2022/03/02 12:27:49;;;;;;;;;;;10.20;41.10;;;;;;5033266;28;19925;-72
2022/03/02 12:30:16;;;;;;;;;;;10.20;41.30;;;;;;5031212;28;19925;-73
2022/03/02 12:32:43;;;;;;;;;;;10.50;39.60;;;;;;5033090;28;20325;-71
2022/03/02 12:35:10;;;;;;;;;;;10.50;38.50;;;;;;5028937;28;19925;-72
2022/03/02 12:37:38;;;;;;;;;;;10.20;40.00;;;;;;5014682;28;20013;-73
2022/03/02 12:40:06;;;;;;;;;;;10.10;41.10;;;;;;5014592;28;19985;-73
2022/03/02 12:42:34;;;;;;;;;;;10.10;40.40;;;;;;5033219;28;19932;-73
2022/03/02 12:45:01;;;;;;;;;;;10.20;40.30;;;;;;5031910;28;20025;-71
2022/03/02 12:47:29;;;;;;;;;;;10.60;40.10;;;;;;5031263;28;19925;-73
2022/03/02 12:49:57;;;;;;;;;;;10.90;39.60;;;;;;5031231;28;19925;-73
2022/03/02 12:52:25;;;;;;;;;;;11.10;38.00;;;;;;5033770;28;20011;-73
2022/03/02 12:54:52;;;;;;;;;;;10.80;38.00;;;;;;5036307;28;19925;-74
2022/03/02 12:57:21;;;;;;;;;;;10.70;36.20;;;;;;5033961;28;20372;-73
2022/03/02 12:59:50;;;;;;;;;;;10.50;36.00;;;;;;5036271;28;20023;-72
2022/03/02 13:02:17;;;;;;;;;;;10.80;35.30;;;;;;5033762;28;19925;-72
2022/03/02 13:04:50;;;;;;;;;;;11.00;36.20;;;;;;5036012;28;20019;-72
2022/03/02 13:07:19;;;;;;;;;;;11.10;35.30;;;;;;5033119;28;20276;-74
2022/03/02 13:09:49;;;;;;;;;;;11.20;33.10;;;;;;5035986;28;19932;-73
2022/03/02 13:12:32;;;;;;;;;;;11.10;34.20;;;;;;5035108;28;20463;-73
2022/03/02 13:15:02;;;;;;;;;;;11.10;32.30;;;;;;5039851;28;19926;-74
2022/03/02 13:17:31;;;;;;;;;;;10.80;32.00;;;;;;5035914;28;20388;-72
2022/03/02 13:19:59;;;;;;;;;;;10.90;31.30;;;;;;5034063;28;19971;-73
2022/03/02 13:22:27;;;;;;;;;;;11.10;32.20;;;;;;5034292;28;19975;-71
2022/03/02 13:24:54;;;;;;;;;;;11.00;28.50;;;;;;5035999;28;20019;-72
2022/03/02 13:27:21;;;;;;;;;;;11.10;28.30;;;;;;5031419;28;19925;-72
2022/03/02 13:29:53;;;;;;;;;;;11.10;28.10;;;;;;5035614;28;19926;-72
2022/03/02 13:32:21;;;;;;;;;;;11.40;28.50;;;;;;5029412;28;19925;-72
2022/03/02 13:35:05;;;;;;;;;;;11.40;26.20;;;;;;5035415;28;19925;-72
2022/03/02 13:37:51;;;;;;;;;;;11.40;26.00;;;;;;5031967;28;19947;-73
2022/03/02 13:40:32;;;;;;;;;;;11.40;24.50;;;;;;5032945;28;20360;-68
2022/03/02 13:43:02;;;;;;;;;;;11.60;23.20;;;;;;5031766;28;19925;-67
2022/03/02 13:45:28;;;;;;;;;;;11.90;23.50;;;;;;5033104;28;20382;-66
2022/03/02 13:48:12;;;;;;;;;;;11.90;20.10;;;;;;5032135;28;19925;-66
2022/03/02 13:50:53;;;;;;;;;;;11.80;20.40;;;;;;5032478;28;19925;-67
2022/03/02 13:53:30;;;;;;;;;;;11.80;19.90;;;;;;5032430;28;19925;-66
2022/03/02 13:56:04;;;;;;;;;;;11.80;20.00;;;;;;5032861;28;19930;-66
2022/03/02 13:58:30;;;;;;;;;;;12.00;19.00;;;;;;5034888;28;19925;-66
2022/03/02 14:01:14;;;;;;;;;;;12.20;20.70;;;;;;5032069;28;19929;-66
2022/03/02 14:03:44;;;;;;;;;;;12.10;18.90;;;;;;5032745;28;19925;-66
2022/03/02 14:06:11;;;;;;;;;;;11.90;20.40;;;;;;5031757;28;20339;-66
2022/03/02 14:08:44;;;;;;;;;;;11.60;19.40;;;;;;5034611;28;19975;-66
2022/03/02 14:11:26;;;;;;;;;;;11.50;19.40;;;;;;5029968;28;20015;-65
2022/03/02 14:13:53;;;;;;;;;;;11.80;20.20;;;;;;5034712;28;20015;-66
2022/03/02 14:16:19;;;;;;;;;;;11.90;18.60;;;;;;5032613;28;20016;-65
2022/03/02 14:18:48;;;;;;;;;;;12.10;17.90;;;;;;5033892;28;19931;-66
2022/03/02 14:21:15;;;;;;;;;;;11.90;17.40;;;;;;5031638;28;19925;-66
2022/03/02 14:23:45;;;;;;;;;;;12.20;17.90;;;;;;5034823;28;19979;-66
2022/03/02 14:26:12;;;;;;;;;;;12.30;18.80;;;;;;5033074;28;20031;-67
2022/03/02 14:28:40;;;;;;;;;;;12.00;17.00;;;;;;5034365;28;20012;-66
2022/03/02 14:31:07;;;;;;;;;;;12.00;17.90;;;;;;5032397;28;19948;-68
2022/03/02 14:33:34;;;;;;;;;;;12.00;17.80;;;;;;5032720;28;19932;-68